sensor_id;sensor_type;location;lat;lon;timestamp;P1;durP1;ratioP1;P2;durP2;ratioP2
32292;SDS011;43233;48.608;8.838;2023-04-06T00:01:40;12.97;;;8.40;;
32292;SDS011;43233;48.608;8.838;2023-04-06T00:04:06;8.90;;;8.00;;
32292;SDS011;43233;48.608;8.838;2023-04-06T00:06:32;12.57;;;7.73;;
32292;SDS011;43233;48.608;8.838;2023-04-06T00:08:58;11.53;;;8.47;;
32292;SDS011;43233;48.608;8.838;2023-04-06T00:11:24;11.90;;;8.73;;
32292;SDS011;43233;48.608;8.838;2023-04-06T00:13:50;8.53;;;7.73;;
32292;SDS011;43233;48.608;8.838;2023-04-06T00:16:16;10.53;;;8.40;;
32292;SDS011;43233;48.608;8.838;2023-04-06T00:18:43;8.43;;;7.50;;
32292;SDS011;43233;48.608;8.838;2023-04-06T00:21:11;8.93;;;7.97;;
32292;SDS011;43233;48.608;8.838;2023-04-06T00:23:38;11.30;;;7.73;;
32292;SDS011;43233;48.608;8.838;2023-04-06T00:26:04;10.77;;;7.60;;
32292;SDS011;43233;48.608;8.838;2023-04-06T00:28:30;9.67;;;7.70;;
32292;SDS011;43233;48.608;8.838;2023-04-06T00:30:55;10.73;;;8.00;;
32292;SDS011;43233;48.608;8.838;2023-04-06T00:33:22;10.47;;;7.80;;
32292;SDS011;43233;48.608;8.838;2023-04-06T00:35:48;13.93;;;8.40;;
32292;SDS011;43233;48.608;8.838;2023-04-06T00:38:14;9.50;;;7.93;;
32292;SDS011;43233;48.608;8.838;2023-04-06T00:40:40;11.50;;;7.60;;
32292;SDS011;43233;48.608;8.838;2023-04-06T00:43:07;10.80;;;7.97;;
32292;SDS011;43233;48.608;8.838;2023-04-06T00:45:34;12.40;;;9.10;;
32292;SDS011;43233;48.608;8.838;2023-04-06T00:48:00;10.43;;;8.23;;
32292;SDS011;43233;48.608;8.838;2023-04-06T00:50:26;7.67;;;6.90;;
32292;SDS011;43233;48.608;8.838;2023-04-06T00:52:53;11.83;;;9.00;;
32292;SDS011;43233;48.608;8.838;2023-04-06T00:55:19;9.27;;;7.30;;
32292;SDS011;43233;48.608;8.838;2023-04-06T00:57:45;9.47;;;8.03;;
32292;SDS011;43233;48.608;8.838;2023-04-06T01:00:12;7.87;;;7.00;;
32292;SDS011;43233;48.608;8.838;2023-04-06T01:02:38;13.50;;;7.90;;
32292;SDS011;43233;48.608;8.838;2023-04-06T01:05:04;10.93;;;7.77;;
32292;SDS011;43233;48.608;8.838;2023-04-06T01:07:30;12.77;;;7.67;;
32292;SDS011;43233;48.608;8.838;2023-04-06T01:09:56;9.67;;;7.57;;
32292;SDS011;43233;48.608;8.838;2023-04-06T01:12:22;8.33;;;7.47;;
32292;SDS011;43233;48.608;8.838;2023-04-06T01:14:48;9.03;;;7.07;;
32292;SDS011;43233;48.608;8.838;2023-04-06T01:17:13;11.43;;;8.10;;
32292;SDS011;43233;48.608;8.838;2023-04-06T01:19:39;9.20;;;7.27;;
32292;SDS011;43233;48.608;8.838;2023-04-06T01:22:13;14.03;;;7.43;;
32292;SDS011;43233;48.608;8.838;2023-04-06T01:24:40;10.40;;;7.20;;
32292;SDS011;43233;48.608;8.838;2023-04-06T01:27:05;12.83;;;8.33;;
32292;SDS011;43233;48.608;8.838;2023-04-06T01:29:31;13.20;;;8.27;;
32292;SDS011;43233;48.608;8.838;2023-04-06T01:31:57;10.00;;;7.90;;
32292;SDS011;43233;48.608;8.838;2023-04-06T01:34:23;9.00;;;7.40;;
32292;SDS011;43233;48.608;8.838;2023-04-06T01:36:48;11.27;;;8.07;;
32292;SDS011;43233;48.608;8.838;2023-04-06T01:39:14;11.83;;;7.90;;
32292;SDS011;43233;48.608;8.838;2023-04-06T01:41:40;12.90;;;9.17;;
32292;SDS011;43233;48.608;8.838;2023-04-06T01:44:05;11.97;;;7.80;;
32292;SDS011;43233;48.608;8.838;2023-04-06T01:46:31;9.10;;;6.47;;
32292;SDS011;43233;48.608;8.838;2023-04-06T01:48:57;11.70;;;7.70;;
32292;SDS011;43233;48.608;8.838;2023-04-06T01:51:22;10.20;;;7.60;;
32292;SDS011;43233;48.608;8.838;2023-04-06T01:53:49;7.97;;;7.17;;
32292;SDS011;43233;48.608;8.838;2023-04-06T01:56:15;14.17;;;7.70;;
32292;SDS011;43233;48.608;8.838;2023-04-06T01:58:41;11.73;;;8.57;;
32292;SDS011;43233;48.608;8.838;2023-04-06T02:01:07;12.63;;;8.40;;
32292;SDS011;43233;48.608;8.838;2023-04-06T02:03:32;12.50;;;8.00;;
32292;SDS011;43233;48.608;8.838;2023-04-06T02:05:58;12.03;;;8.60;;
32292;SDS011;43233;48.608;8.838;2023-04-06T02:08:24;10.20;;;8.00;;
32292;SDS011;43233;48.608;8.838;2023-04-06T02:10:49;10.70;;;8.37;;
32292;SDS011;43233;48.608;8.838;2023-04-06T02:13:15;12.87;;;8.90;;
32292;SDS011;43233;48.608;8.838;2023-04-06T02:15:41;9.23;;;8.30;;
32292;SDS011;43233;48.608;8.838;2023-04-06T02:18:06;10.57;;;7.70;;
32292;SDS011;43233;48.608;8.838;2023-04-06T02:20:32;12.27;;;8.70;;
32292;SDS011;43233;48.608;8.838;2023-04-06T02:22:58;8.43;;;7.60;;
32292;SDS011;43233;48.608;8.838;2023-04-06T02:25:25;11.67;;;7.63;;
32292;SDS011;43233;48.608;8.838;2023-04-06T02:27:51;11.37;;;8.07;;
32292;SDS011;43233;48.608;8.838;2023-04-06T02:30:17;9.57;;;7.50;;
32292;SDS011;43233;48.608;8.838;2023-04-06T02:32:42;10.80;;;7.70;;
32292;SDS011;43233;48.608;8.838;2023-04-06T02:35:08;13.67;;;7.30;;
32292;SDS011;43233;48.608;8.838;2023-04-06T02:37:34;10.50;;;7.20;;
32292;SDS011;43233;48.608;8.838;2023-04-06T02:39:59;8.20;;;7.17;;
32292;SDS011;43233;48.608;8.838;2023-04-06T02:42:25;8.50;;;7.57;;
32292;SDS011;43233;48.608;8.838;2023-04-06T02:44:51;12.47;;;8.13;;
32292;SDS011;43233;48.608;8.838;2023-04-06T02:47:16;23.37;;;13.17;;
32292;SDS011;43233;48.608;8.838;2023-04-06T02:49:42;13.23;;;9.60;;
32292;SDS011;43233;48.608;8.838;2023-04-06T02:52:07;11.60;;;8.47;;
32292;SDS011;43233;48.608;8.838;2023-04-06T02:54:33;13.17;;;8.10;;
32292;SDS011;43233;48.608;8.838;2023-04-06T02:56:59;11.83;;;7.93;;
32292;SDS011;43233;48.608;8.838;2023-04-06T02:59:24;11.60;;;8.13;;
32292;SDS011;43233;48.608;8.838;2023-04-06T03:01:51;9.70;;;8.13;;
32292;SDS011;43233;48.608;8.838;2023-04-06T03:04:17;9.30;;;7.43;;
32292;SDS011;43233;48.608;8.838;2023-04-06T03:06:42;16.53;;;7.53;;
32292;SDS011;43233;48.608;8.838;2023-04-06T03:09:08;11.10;;;8.53;;
32292;SDS011;43233;48.608;8.838;2023-04-06T03:11:34;11.93;;;7.80;;
32292;SDS011;43233;48.608;8.838;2023-04-06T03:13:59;8.60;;;7.70;;
32292;SDS011;43233;48.608;8.838;2023-04-06T03:16:25;9.67;;;8.03;;
32292;SDS011;43233;48.608;8.838;2023-04-06T03:18:50;9.40;;;8.40;;
32292;SDS011;43233;48.608;8.838;2023-04-06T03:21:16;10.60;;;7.20;;
32292;SDS011;43233;48.608;8.838;2023-04-06T03:23:42;9.83;;;8.30;;
32292;SDS011;43233;48.608;8.838;2023-04-06T03:26:08;9.27;;;8.10;;
32292;SDS011;43233;48.608;8.838;2023-04-06T03:28:33;11.70;;;8.50;;
32292;SDS011;43233;48.608;8.838;2023-04-06T03:30:59;16.27;;;7.63;;
32292;SDS011;43233;48.608;8.838;2023-04-06T03:33:25;18.83;;;9.10;;
32292;SDS011;43233;48.608;8.838;2023-04-06T03:35:53;14.07;;;8.63;;
32292;SDS011;43233;48.608;8.838;2023-04-06T03:38:19;11.57;;;8.70;;
32292;SDS011;43233;48.608;8.838;2023-04-06T03:40:45;8.90;;;7.97;;
32292;SDS011;43233;48.608;8.838;2023-04-06T03:43:11;11.17;;;8.77;;
32292;SDS011;43233;48.608;8.838;2023-04-06T03:45:37;10.83;;;7.23;;
32292;SDS011;43233;48.608;8.838;2023-04-06T03:48:02;10.87;;;8.10;;
32292;SDS011;43233;48.608;8.838;2023-04-06T03:50:28;9.60;;;7.33;;
32292;SDS011;43233;48.608;8.838;2023-04-06T03:52:54;10.30;;;7.40;;
32292;SDS011;43233;48.608;8.838;2023-04-06T03:55:20;12.80;;;7.97;;
32292;SDS011;43233;48.608;8.838;2023-04-06T03:57:46;9.53;;;7.63;;
32292;SDS011;43233;48.608;8.838;2023-04-06T04:00:11;11.17;;;7.50;;
32292;SDS011;43233;48.608;8.838;2023-04-06T04:02:38;8.93;;;6.57;;
32292;SDS011;43233;48.608;8.838;2023-04-06T04:05:04;10.53;;;7.70;;
32292;SDS011;43233;48.608;8.838;2023-04-06T04:07:30;12.33;;;9.23;;
32292;SDS011;43233;48.608;8.838;2023-04-06T04:09:55;12.80;;;7.90;;
32292;SDS011;43233;48.608;8.838;2023-04-06T04:12:21;8.80;;;7.30;;
32292;SDS011;43233;48.608;8.838;2023-04-06T04:14:47;10.50;;;8.13;;
32292;SDS011;43233;48.608;8.838;2023-04-06T04:17:12;8.83;;;7.20;;
32292;SDS011;43233;48.608;8.838;2023-04-06T04:19:38;9.10;;;8.10;;
32292;SDS011;43233;48.608;8.838;2023-04-06T04:22:04;8.20;;;7.50;;
32292;SDS011;43233;48.608;8.838;2023-04-06T04:24:30;9.47;;;8.00;;
32292;SDS011;43233;48.608;8.838;2023-04-06T04:26:55;8.80;;;7.50;;
32292;SDS011;43233;48.608;8.838;2023-04-06T04:29:21;12.47;;;8.20;;
32292;SDS011;43233;48.608;8.838;2023-04-06T04:31:47;8.33;;;7.40;;
32292;SDS011;43233;48.608;8.838;2023-04-06T04:34:14;9.07;;;8.13;;
32292;SDS011;43233;48.608;8.838;2023-04-06T04:36:40;11.63;;;8.60;;
32292;SDS011;43233;48.608;8.838;2023-04-06T04:39:07;12.67;;;8.70;;
32292;SDS011;43233;48.608;8.838;2023-04-06T04:41:32;12.63;;;8.30;;
32292;SDS011;43233;48.608;8.838;2023-04-06T04:43:58;14.57;;;8.93;;
32292;SDS011;43233;48.608;8.838;2023-04-06T04:46:24;8.83;;;7.90;;
32292;SDS011;43233;48.608;8.838;2023-04-06T04:48:49;8.30;;;7.50;;
32292;SDS011;43233;48.608;8.838;2023-04-06T04:51:15;9.00;;;7.23;;
32292;SDS011;43233;48.608;8.838;2023-04-06T04:53:41;20.87;;;8.13;;
32292;SDS011;43233;48.608;8.838;2023-04-06T04:56:06;9.57;;;8.30;;
32292;SDS011;43233;48.608;8.838;2023-04-06T04:58:32;9.80;;;7.73;;
32292;SDS011;43233;48.608;8.838;2023-04-06T05:00:58;10.93;;;8.90;;
32292;SDS011;43233;48.608;8.838;2023-04-06T05:03:24;10.17;;;8.40;;
32292;SDS011;43233;48.608;8.838;2023-04-06T05:05:51;10.17;;;8.07;;
32292;SDS011;43233;48.608;8.838;2023-04-06T05:08:17;14.50;;;8.63;;
32292;SDS011;43233;48.608;8.838;2023-04-06T05:10:43;11.00;;;9.00;;
32292;SDS011;43233;48.608;8.838;2023-04-06T05:13:10;12.63;;;9.40;;
32292;SDS011;43233;48.608;8.838;2023-04-06T05:15:35;14.80;;;10.00;;
32292;SDS011;43233;48.608;8.838;2023-04-06T05:18:03;11.97;;;10.13;;
32292;SDS011;43233;48.608;8.838;2023-04-06T05:20:29;10.97;;;8.87;;
32292;SDS011;43233;48.608;8.838;2023-04-06T05:22:55;13.87;;;9.60;;
32292;SDS011;43233;48.608;8.838;2023-04-06T05:25:21;14.13;;;8.77;;
32292;SDS011;43233;48.608;8.838;2023-04-06T05:27:47;10.80;;;8.80;;
32292;SDS011;43233;48.608;8.838;2023-04-06T05:30:12;13.90;;;9.30;;
32292;SDS011;43233;48.608;8.838;2023-04-06T05:32:38;13.93;;;9.20;;
32292;SDS011;43233;48.608;8.838;2023-04-06T05:35:04;18.00;;;9.50;;
32292;SDS011;43233;48.608;8.838;2023-04-06T05:37:30;12.10;;;8.33;;
32292;SDS011;43233;48.608;8.838;2023-04-06T05:39:56;15.67;;;9.60;;
32292;SDS011;43233;48.608;8.838;2023-04-06T05:42:22;12.73;;;9.00;;
32292;SDS011;43233;48.608;8.838;2023-04-06T05:44:48;13.97;;;10.13;;
32292;SDS011;43233;48.608;8.838;2023-04-06T05:47:14;15.53;;;9.33;;
32292;SDS011;43233;48.608;8.838;2023-04-06T05:49:41;20.63;;;9.87;;
32292;SDS011;43233;48.608;8.838;2023-04-06T05:52:07;12.50;;;9.83;;
32292;SDS011;43233;48.608;8.838;2023-04-06T05:54:33;15.17;;;9.43;;
32292;SDS011;43233;48.608;8.838;2023-04-06T05:57:01;13.10;;;8.53;;
32292;SDS011;43233;48.608;8.838;2023-04-06T05:59:29;14.00;;;8.43;;
32292;SDS011;43233;48.608;8.838;2023-04-06T06:01:55;9.13;;;7.40;;
32292;SDS011;43233;48.608;8.838;2023-04-06T06:04:21;8.50;;;7.57;;
32292;SDS011;43233;48.608;8.838;2023-04-06T06:06:47;9.80;;;7.63;;
32292;SDS011;43233;48.608;8.838;2023-04-06T06:09:13;9.90;;;8.30;;
32292;SDS011;43233;48.608;8.838;2023-04-06T06:11:39;10.13;;;9.03;;
32292;SDS011;43233;48.608;8.838;2023-04-06T06:14:05;13.83;;;8.50;;
32292;SDS011;43233;48.608;8.838;2023-04-06T06:16:31;10.40;;;8.53;;
32292;SDS011;43233;48.608;8.838;2023-04-06T06:18:57;12.40;;;8.27;;
32292;SDS011;43233;48.608;8.838;2023-04-06T06:21:22;11.77;;;8.83;;
32292;SDS011;43233;48.608;8.838;2023-04-06T06:23:48;13.70;;;8.80;;
32292;SDS011;43233;48.608;8.838;2023-04-06T06:26:15;19.43;;;9.73;;
32292;SDS011;43233;48.608;8.838;2023-04-06T06:28:40;19.43;;;12.73;;
32292;SDS011;43233;48.608;8.838;2023-04-06T06:31:06;16.73;;;11.40;;
32292;SDS011;43233;48.608;8.838;2023-04-06T06:33:32;14.10;;;10.80;;
32292;SDS011;43233;48.608;8.838;2023-04-06T06:35:58;13.23;;;10.13;;
32292;SDS011;43233;48.608;8.838;2023-04-06T06:38:23;17.60;;;12.70;;
32292;SDS011;43233;48.608;8.838;2023-04-06T06:40:50;18.60;;;12.10;;
32292;SDS011;43233;48.608;8.838;2023-04-06T06:43:15;16.53;;;11.70;;
32292;SDS011;43233;48.608;8.838;2023-04-06T06:45:41;14.13;;;10.60;;
32292;SDS011;43233;48.608;8.838;2023-04-06T06:48:07;14.80;;;10.77;;
32292;SDS011;43233;48.608;8.838;2023-04-06T06:50:32;18.33;;;12.23;;
32292;SDS011;43233;48.608;8.838;2023-04-06T06:52:58;12.20;;;9.80;;
32292;SDS011;43233;48.608;8.838;2023-04-06T06:55:24;18.83;;;12.30;;
32292;SDS011;43233;48.608;8.838;2023-04-06T06:57:51;18.57;;;12.60;;
32292;SDS011;43233;48.608;8.838;2023-04-06T07:00:17;17.07;;;10.83;;
32292;SDS011;43233;48.608;8.838;2023-04-06T07:02:45;20.83;;;12.70;;
32292;SDS011;43233;48.608;8.838;2023-04-06T07:05:12;24.40;;;13.37;;
32292;SDS011;43233;48.608;8.838;2023-04-06T07:07:37;23.10;;;12.40;;
32292;SDS011;43233;48.608;8.838;2023-04-06T07:10:03;30.33;;;12.57;;
32292;SDS011;43233;48.608;8.838;2023-04-06T07:12:29;15.90;;;10.93;;
32292;SDS011;43233;48.608;8.838;2023-04-06T07:14:55;18.67;;;12.50;;
32292;SDS011;43233;48.608;8.838;2023-04-06T07:17:20;21.87;;;11.93;;
32292;SDS011;43233;48.608;8.838;2023-04-06T07:19:46;20.90;;;11.70;;
32292;SDS011;43233;48.608;8.838;2023-04-06T07:22:12;16.10;;;10.33;;
32292;SDS011;43233;48.608;8.838;2023-04-06T07:24:38;20.27;;;11.93;;
32292;SDS011;43233;48.608;8.838;2023-04-06T07:27:04;16.50;;;11.43;;
32292;SDS011;43233;48.608;8.838;2023-04-06T07:29:29;18.60;;;13.00;;
32292;SDS011;43233;48.608;8.838;2023-04-06T07:31:55;24.33;;;13.13;;
32292;SDS011;43233;48.608;8.838;2023-04-06T07:34:21;18.00;;;12.17;;
32292;SDS011;43233;48.608;8.838;2023-04-06T07:36:47;20.53;;;13.67;;
32292;SDS011;43233;48.608;8.838;2023-04-06T07:39:13;22.83;;;11.27;;
32292;SDS011;43233;48.608;8.838;2023-04-06T07:41:39;19.13;;;12.17;;
32292;SDS011;43233;48.608;8.838;2023-04-06T07:44:05;19.87;;;11.83;;
32292;SDS011;43233;48.608;8.838;2023-04-06T07:46:31;25.90;;;12.03;;
32292;SDS011;43233;48.608;8.838;2023-04-06T07:48:57;17.20;;;12.27;;
32292;SDS011;43233;48.608;8.838;2023-04-06T07:51:24;16.67;;;12.40;;
32292;SDS011;43233;48.608;8.838;2023-04-06T07:53:51;19.50;;;10.90;;
32292;SDS011;43233;48.608;8.838;2023-04-06T07:56:17;13.73;;;10.70;;
32292;SDS011;43233;48.608;8.838;2023-04-06T07:58:43;17.63;;;11.50;;
32292;SDS011;43233;48.608;8.838;2023-04-06T08:01:08;19.53;;;11.03;;
32292;SDS011;43233;48.608;8.838;2023-04-06T08:03:34;16.23;;;11.67;;
32292;SDS011;43233;48.608;8.838;2023-04-06T08:06:01;15.63;;;11.17;;
32292;SDS011;43233;48.608;8.838;2023-04-06T08:08:27;15.20;;;10.43;;
32292;SDS011;43233;48.608;8.838;2023-04-06T08:10:53;16.10;;;10.60;;
32292;SDS011;43233;48.608;8.838;2023-04-06T08:13:18;17.63;;;10.60;;
32292;SDS011;43233;48.608;8.838;2023-04-06T08:15:44;14.23;;;10.53;;
32292;SDS011;43233;48.608;8.838;2023-04-06T08:18:10;15.30;;;10.67;;
32292;SDS011;43233;48.608;8.838;2023-04-06T08:20:36;11.37;;;9.50;;
32292;SDS011;43233;48.608;8.838;2023-04-06T08:23:02;16.47;;;9.87;;
32292;SDS011;43233;48.608;8.838;2023-04-06T08:25:27;18.70;;;10.10;;
32292;SDS011;43233;48.608;8.838;2023-04-06T08:27:53;11.20;;;9.30;;
32292;SDS011;43233;48.608;8.838;2023-04-06T08:30:19;19.30;;;10.23;;
32292;SDS011;43233;48.608;8.838;2023-04-06T08:32:45;13.33;;;10.13;;
32292;SDS011;43233;48.608;8.838;2023-04-06T08:35:11;11.30;;;9.60;;
32292;SDS011;43233;48.608;8.838;2023-04-06T08:37:37;13.23;;;9.50;;
32292;SDS011;43233;48.608;8.838;2023-04-06T08:40:03;13.10;;;9.63;;
32292;SDS011;43233;48.608;8.838;2023-04-06T08:42:33;13.30;;;9.40;;
32292;SDS011;43233;48.608;8.838;2023-04-06T08:45:06;22.63;;;11.30;;
32292;SDS011;43233;48.608;8.838;2023-04-06T08:47:34;14.03;;;9.80;;
32292;SDS011;43233;48.608;8.838;2023-04-06T08:50:02;13.97;;;10.33;;
32292;SDS011;43233;48.608;8.838;2023-04-06T08:52:29;12.77;;;10.03;;
32292;SDS011;43233;48.608;8.838;2023-04-06T08:54:57;13.03;;;10.03;;
32292;SDS011;43233;48.608;8.838;2023-04-06T08:57:22;14.63;;;9.43;;
32292;SDS011;43233;48.608;8.838;2023-04-06T08:59:50;15.30;;;10.27;;
32292;SDS011;43233;48.608;8.838;2023-04-06T09:02:17;20.50;;;10.80;;
32292;SDS011;43233;48.608;8.838;2023-04-06T09:04:47;13.57;;;10.20;;
32292;SDS011;43233;48.608;8.838;2023-04-06T09:07:15;12.40;;;9.40;;
32292;SDS011;43233;48.608;8.838;2023-04-06T09:09:41;22.17;;;10.63;;
32292;SDS011;43233;48.608;8.838;2023-04-06T09:12:22;17.70;;;9.63;;
32292;SDS011;43233;48.608;8.838;2023-04-06T09:14:52;12.17;;;9.77;;
32292;SDS011;43233;48.608;8.838;2023-04-06T09:17:30;12.53;;;9.00;;
32292;SDS011;43233;48.608;8.838;2023-04-06T09:19:59;11.80;;;8.80;;
32292;SDS011;43233;48.608;8.838;2023-04-06T09:22:25;14.33;;;10.27;;
32292;SDS011;43233;48.608;8.838;2023-04-06T09:24:59;16.87;;;10.07;;
32292;SDS011;43233;48.608;8.838;2023-04-06T09:27:32;15.83;;;9.03;;
32292;SDS011;43233;48.608;8.838;2023-04-06T09:30:06;16.30;;;9.70;;
32292;SDS011;43233;48.608;8.838;2023-04-06T09:32:55;11.53;;;8.80;;
32292;SDS011;43233;48.608;8.838;2023-04-06T09:35:20;13.40;;;9.20;;
32292;SDS011;43233;48.608;8.838;2023-04-06T09:37:47;14.70;;;10.17;;
32292;SDS011;43233;48.608;8.838;2023-04-06T09:40:16;14.33;;;9.67;;
32292;SDS011;43233;48.608;8.838;2023-04-06T09:42:47;15.13;;;10.10;;
32292;SDS011;43233;48.608;8.838;2023-04-06T09:45:18;13.93;;;9.33;;
32292;SDS011;43233;48.608;8.838;2023-04-06T09:47:44;10.70;;;8.80;;
32292;SDS011;43233;48.608;8.838;2023-04-06T09:50:11;14.50;;;8.47;;
32292;SDS011;43233;48.608;8.838;2023-04-06T09:52:40;16.07;;;10.23;;
32292;SDS011;43233;48.608;8.838;2023-04-06T09:55:30;10.97;;;7.70;;
32292;SDS011;43233;48.608;8.838;2023-04-06T10:00:29;13.50;;;8.43;;
32292;SDS011;43233;48.608;8.838;2023-04-06T10:05:52;10.87;;;7.10;;
32292;SDS011;43233;48.608;8.838;2023-04-06T10:08:19;12.43;;;7.40;;
32292;SDS011;43233;48.608;8.838;2023-04-06T10:10:50;15.93;;;7.60;;
32292;SDS011;43233;48.608;8.838;2023-04-06T10:13:16;12.97;;;7.60;;
32292;SDS011;43233;48.608;8.838;2023-04-06T10:15:44;11.70;;;7.03;;
32292;SDS011;43233;48.608;8.838;2023-04-06T10:18:10;9.93;;;7.60;;
32292;SDS011;43233;48.608;8.838;2023-04-06T10:21:19;9.63;;;7.77;;
32292;SDS011;43233;48.608;8.838;2023-04-06T10:23:48;11.87;;;7.43;;
32292;SDS011;43233;48.608;8.838;2023-04-06T10:26:19;7.73;;;6.17;;
32292;SDS011;43233;48.608;8.838;2023-04-06T10:28:46;8.23;;;7.00;;
32292;SDS011;43233;48.608;8.838;2023-04-06T10:31:13;10.13;;;6.93;;
32292;SDS011;43233;48.608;8.838;2023-04-06T10:33:39;7.20;;;5.67;;
32292;SDS011;43233;48.608;8.838;2023-04-06T10:36:12;3.90;;;3.60;;
32292;SDS011;43233;48.608;8.838;2023-04-06T10:38:53;9.30;;;4.87;;
32292;SDS011;43233;48.608;8.838;2023-04-06T10:41:24;8.30;;;5.67;;
32292;SDS011;43233;48.608;8.838;2023-04-06T10:44:00;7.70;;;6.20;;
32292;SDS011;43233;48.608;8.838;2023-04-06T10:46:27;7.57;;;5.80;;
32292;SDS011;43233;48.608;8.838;2023-04-06T10:48:56;6.73;;;5.47;;
32292;SDS011;43233;48.608;8.838;2023-04-06T10:51:26;14.70;;;6.27;;
32292;SDS011;43233;48.608;8.838;2023-04-06T10:53:52;5.80;;;5.23;;
32292;SDS011;43233;48.608;8.838;2023-04-06T10:56:21;7.47;;;5.00;;
32292;SDS011;43233;48.608;8.838;2023-04-06T10:58:48;6.27;;;5.30;;
32292;SDS011;43233;48.608;8.838;2023-04-06T11:01:16;6.80;;;4.63;;
32292;SDS011;43233;48.608;8.838;2023-04-06T11:03:47;6.00;;;4.70;;
32292;SDS011;43233;48.608;8.838;2023-04-06T11:06:26;5.77;;;5.03;;
32292;SDS011;43233;48.608;8.838;2023-04-06T11:08:55;5.83;;;4.80;;
32292;SDS011;43233;48.608;8.838;2023-04-06T11:11:23;5.53;;;4.40;;
32292;SDS011;43233;48.608;8.838;2023-04-06T11:14:00;5.20;;;4.50;;
32292;SDS011;43233;48.608;8.838;2023-04-06T11:16:27;7.03;;;5.13;;
32292;SDS011;43233;48.608;8.838;2023-04-06T11:21:43;13.00;;;5.57;;
32292;SDS011;43233;48.608;8.838;2023-04-06T11:24:18;8.07;;;5.13;;
32292;SDS011;43233;48.608;8.838;2023-04-06T11:26:48;5.80;;;5.30;;
32292;SDS011;43233;48.608;8.838;2023-04-06T11:29:20;8.53;;;6.20;;
32292;SDS011;43233;48.608;8.838;2023-04-06T11:34:23;9.83;;;6.47;;
32292;SDS011;43233;48.608;8.838;2023-04-06T11:36:57;7.67;;;6.13;;
32292;SDS011;43233;48.608;8.838;2023-04-06T11:39:24;7.80;;;6.30;;
32292;SDS011;43233;48.608;8.838;2023-04-06T11:41:52;9.70;;;6.10;;
32292;SDS011;43233;48.608;8.838;2023-04-06T11:47:00;7.83;;;4.47;;
32292;SDS011;43233;48.608;8.838;2023-04-06T11:49:27;7.70;;;5.03;;
32292;SDS011;43233;48.608;8.838;2023-04-06T11:51:54;6.03;;;5.20;;
32292;SDS011;43233;48.608;8.838;2023-04-06T11:54:36;12.30;;;4.60;;
32292;SDS011;43233;48.608;8.838;2023-04-06T11:57:03;6.20;;;4.70;;
32292;SDS011;43233;48.608;8.838;2023-04-06T11:59:30;5.67;;;4.93;;
32292;SDS011;43233;48.608;8.838;2023-04-06T12:01:59;4.17;;;3.77;;
32292;SDS011;43233;48.608;8.838;2023-04-06T12:04:26;5.90;;;5.30;;
32292;SDS011;43233;48.608;8.838;2023-04-06T12:06:51;7.50;;;5.77;;
32292;SDS011;43233;48.608;8.838;2023-04-06T12:09:17;7.27;;;5.10;;
32292;SDS011;43233;48.608;8.838;2023-04-06T12:11:43;8.13;;;6.50;;
32292;SDS011;43233;48.608;8.838;2023-04-06T12:14:10;8.07;;;6.87;;
32292;SDS011;43233;48.608;8.838;2023-04-06T12:16:36;9.30;;;6.47;;
32292;SDS011;43233;48.608;8.838;2023-04-06T12:19:02;6.87;;;6.10;;
32292;SDS011;43233;48.608;8.838;2023-04-06T12:21:28;7.10;;;5.83;;
32292;SDS011;43233;48.608;8.838;2023-04-06T12:23:56;7.53;;;4.73;;
32292;SDS011;43233;48.608;8.838;2023-04-06T12:26:22;7.23;;;5.23;;
32292;SDS011;43233;48.608;8.838;2023-04-06T12:28:47;6.13;;;5.33;;
32292;SDS011;43233;48.608;8.838;2023-04-06T12:31:16;4.70;;;4.20;;
32292;SDS011;43233;48.608;8.838;2023-04-06T12:33:43;7.17;;;6.43;;
32292;SDS011;43233;48.608;8.838;2023-04-06T12:36:12;7.03;;;5.33;;
32292;SDS011;43233;48.608;8.838;2023-04-06T12:38:38;6.47;;;5.77;;
32292;SDS011;43233;48.608;8.838;2023-04-06T12:41:05;8.73;;;7.13;;
32292;SDS011;43233;48.608;8.838;2023-04-06T12:43:31;7.17;;;5.30;;
32292;SDS011;43233;48.608;8.838;2023-04-06T12:45:57;7.00;;;5.10;;
32292;SDS011;43233;48.608;8.838;2023-04-06T12:48:24;8.00;;;5.70;;
32292;SDS011;43233;48.608;8.838;2023-04-06T12:50:54;9.20;;;6.17;;
32292;SDS011;43233;48.608;8.838;2023-04-06T12:53:21;6.77;;;5.70;;
32292;SDS011;43233;48.608;8.838;2023-04-06T12:55:46;10.30;;;7.53;;
32292;SDS011;43233;48.608;8.838;2023-04-06T12:58:12;7.60;;;6.37;;
32292;SDS011;43233;48.608;8.838;2023-04-06T13:00:38;7.37;;;5.60;;
32292;SDS011;43233;48.608;8.838;2023-04-06T13:03:03;9.60;;;7.03;;
32292;SDS011;43233;48.608;8.838;2023-04-06T13:05:29;8.27;;;6.37;;
32292;SDS011;43233;48.608;8.838;2023-04-06T13:07:55;7.77;;;5.83;;
32292;SDS011;43233;48.608;8.838;2023-04-06T13:10:22;8.17;;;6.30;;
32292;SDS011;43233;48.608;8.838;2023-04-06T13:12:47;7.17;;;5.40;;
32292;SDS011;43233;48.608;8.838;2023-04-06T13:15:13;9.37;;;6.27;;
32292;SDS011;43233;48.608;8.838;2023-04-06T13:17:40;7.23;;;5.90;;
32292;SDS011;43233;48.608;8.838;2023-04-06T13:20:05;10.33;;;6.87;;
32292;SDS011;43233;48.608;8.838;2023-04-06T13:22:32;6.90;;;5.40;;
32292;SDS011;43233;48.608;8.838;2023-04-06T13:24:57;8.47;;;6.37;;
32292;SDS011;43233;48.608;8.838;2023-04-06T13:27:23;6.60;;;5.90;;
32292;SDS011;43233;48.608;8.838;2023-04-06T13:29:49;7.20;;;5.40;;
32292;SDS011;43233;48.608;8.838;2023-04-06T13:32:14;7.50;;;5.70;;
32292;SDS011;43233;48.608;8.838;2023-04-06T13:34:40;7.97;;;5.60;;
32292;SDS011;43233;48.608;8.838;2023-04-06T13:37:10;6.40;;;5.50;;
32292;SDS011;43233;48.608;8.838;2023-04-06T13:39:39;7.57;;;5.93;;
32292;SDS011;43233;48.608;8.838;2023-04-06T13:42:04;6.50;;;5.50;;
32292;SDS011;43233;48.608;8.838;2023-04-06T13:44:31;8.07;;;6.17;;
32292;SDS011;43233;48.608;8.838;2023-04-06T13:46:57;10.03;;;7.00;;
32292;SDS011;43233;48.608;8.838;2023-04-06T13:49:23;8.03;;;6.10;;
32292;SDS011;43233;48.608;8.838;2023-04-06T13:51:49;7.37;;;5.07;;
32292;SDS011;43233;48.608;8.838;2023-04-06T13:54:15;9.80;;;6.37;;
32292;SDS011;43233;48.608;8.838;2023-04-06T13:56:40;7.07;;;5.00;;
32292;SDS011;43233;48.608;8.838;2023-04-06T13:59:06;7.30;;;5.73;;
32292;SDS011;43233;48.608;8.838;2023-04-06T14:01:32;6.70;;;5.20;;
32292;SDS011;43233;48.608;8.838;2023-04-06T14:03:57;6.47;;;5.53;;
32292;SDS011;43233;48.608;8.838;2023-04-06T14:06:23;6.40;;;5.00;;
32292;SDS011;43233;48.608;8.838;2023-04-06T14:08:49;6.43;;;5.83;;
32292;SDS011;43233;48.608;8.838;2023-04-06T14:11:15;10.90;;;5.37;;
32292;SDS011;43233;48.608;8.838;2023-04-06T14:13:41;13.93;;;6.23;;
32292;SDS011;43233;48.608;8.838;2023-04-06T14:16:06;8.30;;;6.03;;
32292;SDS011;43233;48.608;8.838;2023-04-06T14:18:32;7.03;;;5.50;;
32292;SDS011;43233;48.608;8.838;2023-04-06T14:20:59;5.80;;;5.20;;
32292;SDS011;43233;48.608;8.838;2023-04-06T14:23:25;8.40;;;5.50;;
32292;SDS011;43233;48.608;8.838;2023-04-06T14:26:04;6.57;;;5.63;;
32292;SDS011;43233;48.608;8.838;2023-04-06T14:28:30;6.50;;;5.27;;
32292;SDS011;43233;48.608;8.838;2023-04-06T14:31:00;8.70;;;5.47;;
32292;SDS011;43233;48.608;8.838;2023-04-06T14:33:26;8.73;;;4.80;;
32292;SDS011;43233;48.608;8.838;2023-04-06T14:35:52;8.57;;;5.90;;
32292;SDS011;43233;48.608;8.838;2023-04-06T14:38:18;9.63;;;6.43;;
32292;SDS011;43233;48.608;8.838;2023-04-06T14:40:43;6.40;;;5.30;;
32292;SDS011;43233;48.608;8.838;2023-04-06T14:43:09;8.53;;;6.00;;
32292;SDS011;43233;48.608;8.838;2023-04-06T14:45:35;8.80;;;5.97;;
32292;SDS011;43233;48.608;8.838;2023-04-06T14:48:01;7.27;;;5.63;;
32292;SDS011;43233;48.608;8.838;2023-04-06T14:50:27;7.10;;;5.30;;